createdAt,value
2023-11-01T00:01:11.976Z,15.88
2023-11-01T00:06:14.148Z,18.00
2023-11-01T00:11:16.455Z,21.60
2023-11-01T00:16:18.760Z,18.50
2023-11-01T00:21:20.900Z,15.15
2023-11-01T00:26:23.046Z,16.70
2023-11-01T00:31:25.199Z,20.48
2023-11-01T00:36:27.333Z,19.15
2023-11-01T00:41:29.549Z,22.58
2023-11-01T00:46:31.738Z,20.33
2023-11-01T00:51:34.101Z,17.90
2023-11-01T00:56:36.334Z,20.27
2023-11-01T01:01:41.405Z,17.38
2023-11-01T01:06:43.570Z,22.42
2023-11-01T01:11:48.559Z,20.27
2023-11-01T01:16:51.524Z,16.20
2023-11-01T01:21:53.793Z,16.35
2023-11-01T01:26:56.265Z,18.65
2023-11-01T01:31:58.436Z,15.77
2023-11-01T01:37:00.650Z,11.27
2023-11-01T01:42:02.856Z,19.08
2023-11-01T01:47:06.240Z,16.95
2023-11-01T01:52:08.426Z,14.60
2023-11-01T01:57:11.897Z,16.83
2023-11-01T02:02:14.659Z,14.43
2023-11-01T02:07:16.981Z,18.85
2023-11-01T02:12:19.704Z,11.63
2023-11-01T02:17:21.839Z,17.35
2023-11-01T02:22:24.007Z,12.60
2023-11-01T02:27:26.189Z,12.18
2023-11-01T02:32:29.888Z,12.65
2023-11-01T02:37:32.391Z,13.50
2023-11-01T02:42:34.527Z,15.88
2023-11-01T02:47:40.457Z,13.23
2023-11-01T02:52:42.658Z,9.23
2023-11-01T02:57:46.335Z,16.10
2023-11-01T03:02:55.413Z,9.65
2023-11-01T03:07:57.911Z,7.60
2023-11-01T03:13:00.138Z,7.22
2023-11-01T03:18:02.370Z,10.45
2023-11-01T03:23:05.382Z,20.17
2023-11-01T03:28:07.546Z,8.60
2023-11-01T03:33:09.839Z,11.90
2023-11-01T03:38:12.078Z,12.90
2023-11-01T03:43:14.382Z,7.60
2023-11-01T03:48:16.602Z,8.68
2023-11-01T03:53:18.810Z,8.60
2023-11-01T03:58:21.118Z,10.15
2023-11-01T04:03:23.244Z,6.03
2023-11-01T04:08:25.491Z,7.55
2023-11-01T04:13:27.734Z,9.13
2023-11-01T04:18:29.891Z,10.23
2023-11-01T04:23:32.036Z,7.50
2023-11-01T04:28:34.480Z,13.75
2023-11-01T04:33:37.232Z,15.13
2023-11-01T04:38:39.879Z,13.65
2023-11-01T04:43:42.013Z,11.63
2023-11-01T04:48:44.111Z,17.58
2023-11-01T04:53:47.438Z,11.20
2023-11-01T04:58:49.868Z,15.85
2023-11-01T05:03:52.110Z,14.02
2023-11-01T05:08:55.243Z,13.73
2023-11-01T05:13:57.479Z,15.18
2023-11-01T05:18:59.625Z,15.45
2023-11-01T05:24:01.751Z,25.70
2023-11-01T05:29:05.763Z,19.10
2023-11-01T05:34:07.985Z,14.02
2023-11-01T05:39:10.107Z,16.52
2023-11-01T05:44:12.264Z,26.20
2023-11-01T05:49:15.900Z,14.63
2023-11-01T05:54:18.064Z,13.27
2023-11-01T05:59:20.748Z,11.80
2023-11-01T06:04:23.364Z,14.38
2023-11-01T06:09:26.243Z,13.40
2023-11-01T06:14:28.431Z,19.35
2023-11-01T06:19:33.275Z,12.07
2023-11-01T06:24:35.368Z,13.25
2023-11-01T06:29:37.538Z,13.18
2023-11-01T06:34:39.876Z,14.38
2023-11-01T06:39:41.991Z,7.18
2023-11-01T06:44:44.208Z,11.02
2023-11-01T06:49:46.442Z,17.02
2023-11-01T06:54:48.601Z,14.15
2023-11-01T06:59:50.805Z,25.35
2023-11-01T07:04:53.096Z,21.70
2023-11-01T07:09:55.389Z,5.93
2023-11-01T07:14:57.562Z,6.60
2023-11-01T07:19:59.694Z,11.65
2023-11-01T07:25:01.941Z,11.25
2023-11-01T07:30:04.476Z,7.70
2023-11-01T07:35:06.867Z,8.38
2023-11-01T07:40:09.964Z,11.88
2023-11-01T07:45:12.186Z,5.90
2023-11-01T07:50:14.690Z,8.90
2023-11-01T07:55:16.989Z,9.70
2023-11-01T08:00:19.342Z,13.18
2023-11-01T08:05:23.681Z,6.60
2023-11-01T08:10:25.823Z,10.85
2023-11-01T08:15:28.095Z,10.25
2023-11-01T08:20:33.681Z,9.13
2023-11-01T08:25:37.447Z,6.93
2023-11-01T08:30:40.552Z,9.90
2023-11-01T08:35:42.774Z,17.38
2023-11-01T08:40:45.033Z,13.18
2023-11-01T08:45:47.284Z,11.15
2023-11-01T08:50:49.521Z,20.83
2023-11-01T08:55:51.692Z,11.15
2023-11-01T09:00:53.819Z,11.65
2023-11-01T09:05:56.154Z,20.20
2023-11-01T09:10:59.169Z,15.75
2023-11-01T09:16:01.307Z,11.80
2023-11-01T09:21:03.536Z,14.32
2023-11-01T09:26:10.863Z,17.92
2023-11-01T09:31:12.958Z,19.40
2023-11-01T09:36:15.346Z,15.20
2023-11-01T09:41:23.588Z,14.98
2023-11-01T09:46:26.139Z,15.33
2023-11-01T09:51:28.655Z,12.43
2023-11-01T09:56:34.697Z,20.88
2023-11-01T10:01:38.621Z,15.75
2023-11-01T10:06:40.838Z,16.60
2023-11-01T10:11:47.147Z,20.73
2023-11-01T10:16:49.267Z,20.30
2023-11-01T10:21:56.194Z,13.13
2023-11-01T10:26:58.904Z,20.00
2023-11-01T10:32:01.155Z,19.60
2023-11-01T10:37:06.253Z,22.10
2023-11-01T10:42:11.284Z,18.10
2023-11-01T10:47:15.406Z,18.23
2023-11-01T10:52:20.132Z,18.08
2023-11-01T10:57:26.206Z,15.70
2023-11-01T11:02:40.826Z,14.63
2023-11-01T11:07:54.336Z,14.20
2023-11-01T11:13:11.807Z,14.52
2023-11-01T11:18:41.900Z,14.52
2023-11-01T11:23:45.744Z,8.52
2023-11-01T11:28:49.552Z,11.23
2023-11-01T11:33:53.680Z,8.05
2023-11-01T11:39:00.565Z,9.45
2023-11-01T11:44:16.239Z,6.05
2023-11-01T11:49:39.554Z,9.35
2023-11-01T11:54:41.680Z,8.55
2023-11-01T11:59:44.443Z,4.75
2023-11-01T12:04:46.988Z,12.82
2023-11-01T12:09:52.924Z,5.03
2023-11-01T12:15:02.577Z,11.13
2023-11-01T12:20:05.493Z,9.18
2023-11-01T12:25:09.948Z,4.55
2023-11-01T12:30:22.505Z,9.07
2023-11-01T12:35:24.710Z,5.55
2023-11-01T12:40:28.155Z,9.30
2023-11-01T12:45:34.170Z,8.43
2023-11-01T12:50:37.985Z,5.90
2023-11-01T12:55:40.528Z,7.78
2023-11-01T13:00:45.846Z,5.30
2023-11-01T13:05:48.171Z,8.32
2023-11-01T13:10:52.262Z,3.90
2023-11-01T13:15:54.466Z,5.50
2023-11-01T13:20:56.716Z,4.95
2023-11-01T13:25:58.848Z,3.47
2023-11-01T13:31:01.075Z,5.63
2023-11-01T13:36:03.322Z,7.60
2023-11-01T13:41:06.348Z,26.13
2023-11-01T13:46:11.135Z,6.80
2023-11-01T13:51:13.329Z,15.50
2023-11-01T13:56:15.567Z,15.82
2023-11-01T14:01:18.739Z,30.67
2023-11-01T14:06:24.799Z,18.23
2023-11-01T14:11:28.405Z,12.37
2023-11-01T14:16:31.067Z,3.90
2023-11-01T14:21:33.461Z,9.07
2023-11-01T14:26:35.768Z,9.82
2023-11-01T14:31:38.168Z,6.03
2023-11-01T14:36:41.100Z,8.52
2023-11-01T14:41:43.236Z,5.00
2023-11-01T14:46:45.451Z,9.07
2023-11-01T14:51:47.600Z,10.55
2023-11-01T14:56:50.124Z,14.77
2023-11-01T15:01:55.645Z,10.32
2023-11-01T15:06:59.126Z,24.25
2023-11-01T15:12:01.309Z,31.30
2023-11-01T15:17:03.549Z,36.72
2023-11-01T15:22:05.799Z,27.95
2023-11-01T15:27:08.068Z,31.98
2023-11-01T15:32:10.401Z,28.15
2023-11-01T15:37:13.638Z,28.88
2023-11-01T15:42:16.054Z,24.30
2023-11-01T15:47:18.596Z,25.55
2023-11-01T15:52:20.745Z,35.88
2023-11-01T15:57:25.085Z,27.00
2023-11-01T16:02:30.305Z,36.30
2023-11-01T16:07:33.844Z,28.60
2023-11-01T16:12:36.045Z,28.02
2023-11-01T16:17:38.372Z,33.28
2023-11-01T16:22:40.583Z,33.13
2023-11-01T16:27:45.333Z,26.60
2023-11-01T16:32:52.101Z,20.92
2023-11-01T16:37:56.596Z,20.08
2023-11-01T16:43:01.817Z,30.73
2023-11-01T16:48:04.279Z,21.58
2023-11-01T16:53:06.502Z,23.38
2023-11-01T16:58:08.759Z,23.42
2023-11-01T17:03:11.186Z,39.78
2023-11-01T17:08:13.811Z,41.05
2023-11-01T17:13:17.651Z,27.15
2023-11-01T17:18:20.069Z,27.10
2023-11-01T17:23:22.306Z,23.67
2023-11-01T17:28:35.797Z,29.98
2023-11-01T17:33:42.680Z,23.77
2023-11-01T17:38:44.965Z,28.55
2023-11-01T17:43:55.076Z,16.40
2023-11-01T17:48:59.379Z,20.08
2023-11-01T17:54:05.204Z,30.45
2023-11-01T17:59:07.465Z,32.88
2023-11-01T18:04:09.734Z,18.60
2023-11-01T18:09:18.514Z,21.58
2023-11-01T18:14:20.648Z,31.88
2023-11-01T18:19:23.020Z,26.20
2023-11-01T18:24:51.216Z,22.58
2023-11-01T18:29:53.441Z,24.77
2023-11-01T18:34:59.529Z,33.58
2023-11-01T18:40:01.663Z,25.63
2023-11-01T18:45:04.955Z,23.88
2023-11-01T18:50:14.322Z,25.63
2023-11-01T18:55:33.260Z,20.48
2023-11-01T19:00:36.669Z,23.30
2023-11-01T19:05:41.832Z,30.20
2023-11-01T19:10:44.501Z,27.67
2023-11-01T19:16:16.037Z,22.85
2023-11-01T19:21:21.305Z,29.08
2023-11-01T19:26:25.384Z,32.30
2023-11-01T19:31:29.577Z,30.10
2023-11-01T19:36:31.805Z,25.83
2023-11-01T19:41:35.052Z,27.52
2023-11-01T19:46:38.399Z,33.45
2023-11-01T19:51:40.944Z,41.58
2023-11-01T19:56:43.131Z,32.10
2023-11-01T20:01:45.485Z,28.05
2023-11-01T20:06:49.102Z,23.55
2023-11-01T20:11:52.409Z,28.67
2023-11-01T20:16:54.562Z,22.63
2023-11-01T20:21:56.757Z,31.33
2023-11-01T20:26:58.961Z,31.90
2023-11-01T20:32:01.161Z,29.73
2023-11-01T20:37:04.198Z,38.38
2023-11-01T20:42:06.671Z,33.58
2023-11-01T20:47:09.034Z,35.03
2023-11-01T20:52:11.302Z,28.45
2023-11-01T20:57:14.150Z,28.35
2023-11-01T21:02:16.362Z,26.25
2023-11-01T21:07:19.439Z,25.15
2023-11-01T21:12:22.794Z,25.05
2023-11-01T21:17:25.790Z,23.45
2023-11-01T21:22:34.438Z,25.35
2023-11-01T21:27:36.946Z,27.88
2023-11-01T21:32:39.157Z,22.30
2023-11-01T21:37:41.630Z,17.65
2023-11-01T21:42:43.810Z,20.83
2023-11-01T21:47:46.257Z,18.90
2023-11-01T21:52:48.399Z,24.90
2023-11-01T21:57:51.015Z,22.60
2023-11-01T22:02:53.232Z,26.05
2023-11-01T22:07:58.645Z,22.20
2023-11-01T22:13:02.144Z,17.80
2023-11-01T22:18:07.255Z,29.23
2023-11-01T22:23:09.473Z,21.75
2023-11-01T22:28:11.682Z,20.10
2023-11-01T22:33:17.323Z,21.50
2023-11-01T22:38:20.045Z,22.38
2023-11-01T22:43:22.194Z,18.25
2023-11-01T22:48:24.459Z,21.15
2023-11-01T22:53:27.686Z,19.35
2023-11-01T22:58:29.955Z,24.52
2023-11-01T23:03:32.290Z,22.50
2023-11-01T23:08:34.523Z,19.48
2023-11-01T23:13:36.663Z,20.65
2023-11-01T23:18:38.918Z,18.63
2023-11-01T23:23:41.162Z,16.42
2023-11-01T23:29:10.136Z,22.23
2023-11-01T23:34:57.296Z,20.95
2023-11-01T23:39:59.533Z,19.33
2023-11-01T23:45:06.697Z,23.88
2023-11-01T23:50:19.377Z,24.92
2023-11-01T23:55:21.621Z,22.02
